EFKK/KOK METAR and TAF weather

Enter ICAO airport designator
Station Type Date Time Source
EFKK METAR 2019/12/10 03:20 UTC NOAA

EFKK 100320Z 32004KT 290V350 9999 -SHSN BKN012 M03/M04 Q0998


Station Type Date Time Source
EFKK Decoded METAR 2019/12/10 03:20 UTC NOAA

Kruunupyy, Finland (EFKK) 63-43N 023-09E
Dec 09, 2019 - 10:20 PM EST / 2019.12.10 0320 UTC
Wind: from the NW (320 degrees) at 5 MPH (4 KT) (direction variable):0
Visibility: greater than 7 mile(s):0
Sky conditions: mostly cloudy
Weather: light snow showers
Temperature: 26 F (-3 C)
Windchill: 19 F (-7 C):1
Dew Point: 24 F (-4 C)
Relative Humidity: 92%
Pressure (altimeter): 29.47 in. Hg (0998 hPa)
ob: EFKK 100320Z 32004KT 290V350 9999 -SHSN BKN012 M03/M04 Q0998
cycle: 3

Station Type Date Time Source
EFKK TAF 2019/04/22 21:42 UTC NOAA

TAF EFKK 222023Z 2221/2321 18006KT CAVOK

Example: see airport list